Crooked Creek Research Lab Weather observations

Data are for 10 minute period ending at time listed.
 Day   Time    Ave.   Ave.  Ave.  Vector   Max.   Stn.    Total    Solar   Ave.   Snow 
  of    of     Air    Rel.  Wind   Wind    Wind   Baro.  Precip.   Rad.    Soil   Depth
Year   Day     Temp.  Hum.  Speed  Dir.    Gust   Pres.                    Temp.       
2014   (PST)    F      %     mph   deg.    mph     mb.     in.     W/m2     F      in. 
---------------------------------------------------------------------------------------  
 108    0:00   37.8    48    0.8   174      2.5   698.1    0.00       0    999.0    -0.5
 108    0:10   37.9    49    2.3   148      3.9   698.0    0.00       0    999.0    -0.6
 108    0:20   37.9    49    1.5   171      4.5   698.0    0.00       0    999.0    -0.5
 108    0:30   38.1    47    1.9   155      5.3   697.9    0.00       0    999.0    -0.5
 108    0:40   38.7    46    2.4   171      4.4   697.8    0.00       0    999.0    -0.5
 108    0:50   38.8    45    2.1   185      4.0   697.8    0.00       0    999.0    -0.5
 108    1:00   38.5    47    2.2   168      4.1   697.7    0.00       0    999.0    -0.5
 108    1:10   38.2    47    1.6   162      3.9   697.6    0.00       0    999.0    -0.6
 108    1:20   37.6    48    1.7   164      3.0   697.5    0.00       0    999.0    -0.6
 108    1:30   37.3    49    2.7   158      5.5   697.3    0.00       0    999.0    -0.5
 108    1:40   37.9    48    2.7   160      5.2   697.3    0.00       0    999.0    -0.5
 108    1:50   38.1    48    2.1   164      4.4   697.3    0.00       0    999.0    -0.5
 108    2:00   38.1    47    0.6   109      2.1   697.3    0.00       0    999.0    -0.5
 108    2:10   37.4    50    0.7     8      2.1   697.3    0.00       0    999.0    -0.6
 108    2:20   36.5    54    1.5   128      2.8   697.5    0.00       0    999.0    -0.5
 108    2:30   35.6    57    1.3   174      3.9   697.5    0.00       0    999.0    -0.6
 108    2:40   35.0    57    2.3   202      4.6   697.4    0.00       0    999.0    -0.5
 108    2:50   35.6    56    2.3   158      4.5   697.3    0.00       0    999.0    -0.5
 108    3:00   34.7    60    1.5   134      3.5   697.4    0.00       0    999.0    -0.5
 108    3:10   33.8    61    1.2   123      2.6   697.3    0.00       0    999.0    -0.5
 108    3:20   32.5    65    1.0   119      2.7   697.2    0.00       0    999.0    -0.6
 108    3:30   31.9    65    1.4   118      2.6   697.1    0.00       0    999.0    -0.5
 108    3:40   31.1    67    1.6   198      3.5   696.9    0.00       0    999.0    -0.5
 108    3:50   30.5    69    0.2   139      1.4   697.0    0.00       0    999.0    -0.5
 108    4:00   30.1    70    0.1   140      1.2   697.0    0.00       0    999.0    -0.5
 108    4:10   30.3    71    1.0   139      2.8   697.0    0.00       0    999.0    -0.5
 108    4:20   29.6    73    0.2   207      1.5   696.9    0.00       0    999.0    -0.5
 108    4:30   30.0    73    0.1   201      0.8   696.9    0.00       0    999.0    -0.5
 108    4:40   29.9    74    0.6   147      2.7   696.9    0.00       0    999.0    -0.5
 108    4:50   30.4    72    0.7   162      2.0   696.9    0.00       0    999.0    -0.5
 108    5:00   30.2    73    0.3   185      1.2   696.9    0.00       0    999.0    -0.5
 108    5:10   30.4    72    0.8   195      2.5   697.2    0.00       1    999.0    -0.5
 108    5:20   29.8    74    1.2   141      2.9   697.0    0.00       3    999.0    -0.6
 108    5:30   29.2    75    1.0   133      2.3   697.2    0.00       5    999.0    -0.5
 108    5:40   29.4    74    0.5   133      1.8   697.4    0.00      11    999.0    -0.5
 108    5:50   28.7    76    0.6   133      2.3   697.3    0.00      17    999.0    -0.6
 108    6:00   28.6    76    0.2   134      0.9   697.4    0.00      16    999.0    -0.5
 108    6:10   28.9    76    0.8   134      1.6   697.4    0.00      22    999.0    -0.5
 108    6:20   29.3    75    1.6   134      2.2   697.2    0.00      32    999.0    -0.6
 108    6:30   30.0    74    0.3   134      1.8   697.5    0.00      44    999.0    -0.4
 108    6:40   32.2    68    1.6   133      2.5   697.5    0.00      50    999.0    -0.5
 108    6:50   34.4    65    3.0   126      3.8   697.7    0.00     227    999.0    -0.6
 108    7:00   37.9    56    1.7   123      3.0   697.7    0.00     343    999.0    -0.6
 108    7:10   41.9    45    1.4    64      2.9   697.7    0.00     381    999.0    -0.6
 108    7:20   45.5    40    1.4    78      3.0   698.0    0.00     427    999.0    -0.8
 108    7:30   46.7    37    1.7    76      4.1   698.0    0.00     465    999.0    -0.8
 108    7:40   45.8    37    3.0   107      8.0   698.0    0.00     495    999.0    -0.8
 108    7:50   45.2    38    2.9   154      7.3   698.1    0.00     518    999.0    -0.7
 108    8:00   45.4    37    2.3    85      5.6   698.1    0.00     544    999.0    -0.6
 108    8:10   46.2    37    2.8   191      6.8   698.2    0.00     522    999.0    -0.7
 108    8:20   45.6    39    2.8   114      8.5   698.3    0.00     607    999.0    -0.6
 108    8:30   45.5    41    3.7   105      9.3   698.3    0.00     450    999.0    -0.7
 108    8:40   43.8    45    3.3   122     11.0   698.4    0.00     311    999.0    -0.6
 108    8:50   42.8    50    3.3   119      8.0   698.4    0.00     470    999.0    -0.4
 108    9:00   43.3    50    4.4    57      8.2   698.4    0.00     416    999.0    -0.5
 108    9:10   44.6    49    3.0    25      9.4   698.5    0.00     820    999.0    -0.4
 108    9:20   45.9    45    4.2    34     10.2   698.5    0.00     634    999.0    -0.7
 108    9:30   45.9    46    3.0   139      7.7   698.5    0.00     806    999.0    -0.5
 108    9:40   46.7    45    4.5   140      9.8   698.6    0.00     931    999.0    -0.6
 108    9:50   48.4    42    2.0   121      6.2   698.6    0.00     748    999.0    -0.6
 108   10:00   47.4    44    4.3    42     11.3   698.6    0.00     687    999.0    -0.6
 108   10:10   45.4    46    4.3   155      9.8   698.7    0.00     403    999.0    -0.5
 108   10:20   44.0    50    5.5   176     21.3   698.6    0.00     177    999.0    -0.5
 108   10:30   43.5    50    3.4   220      7.0   698.7    0.00      83    999.0    -0.4
 108   10:40   42.8    47    3.8   249      8.2   698.7    0.00      61    999.0    -0.5
 108   10:50   42.1    54    7.3    94     17.3   698.7    0.00      44    999.0    -0.4
 108   11:00   41.1    62    4.6    48     11.0   698.9    0.00      39    999.0    -0.6
 108   11:10   38.1    73    4.7    52      9.4   698.9    0.00      35    999.0    -0.4
 108   11:20   36.0    82    3.8    22      8.4   699.0    0.00      22    999.0    -0.6
 108   11:30   35.0    83    6.2   287     10.4   699.0    0.00      36    999.0    -0.4
 108   11:40   35.1    84    2.0   351      7.2   698.9    0.00      68    999.0    -0.4
 108   11:50   35.3    87    1.2   164      3.0   699.0    0.00     159    999.0    -0.5
 108   12:00   36.9    80    0.1    86      1.0   698.9    0.00     217    999.0    -0.6
 108   12:10   37.8    73    3.3   339      6.9   698.8    0.00     229    999.0    -0.6
 108   12:20   37.9    68    3.1   338      5.6   698.9    0.00     250    999.0    -0.6
 108   12:30   38.7    64    3.0   343      5.5   698.8    0.00     312    999.0    -0.6
 108   12:40   39.8    62    3.1   345      5.1   698.7    0.00     552    999.0    -0.5
 108   12:50   41.8    57    2.7    11      5.3   698.7    0.00     745    999.0    -0.7
 108   13:00   42.4    58    2.6   353      5.6   698.5    0.00     710    999.0    -0.6
 108   13:10   43.8    56    3.1   350      9.2   698.5    0.00     814    999.0    -0.6
 108   13:20   44.6    51    3.8    24      8.6   698.5    0.00     739    999.0    -0.6
 108   13:30   45.1    48    4.2     4      8.5   698.4    0.00     905    999.0    -0.6
 108   13:40   45.4    48    4.5    22     13.4   698.3    0.00     434    999.0    -0.6
 108   13:50   44.3    48    4.9     1     11.8   698.3    0.00     236    999.0    -0.6
 108   14:00   43.7    48    5.2   354     13.3   698.2    0.00     195    999.0    -0.6
 108   14:10   43.5    47    3.3    24     12.2   698.2    0.00     137    999.0    -0.6
 108   14:20   43.1    46    3.5    52      9.9   698.0    0.00      87    999.0    -0.6
 108   14:30   42.2    48    6.4   332     17.7   698.1    0.00      59    999.0    -0.6
 108   14:40   40.2    55    6.7   314     14.0   698.2    0.00      44    999.0    -0.6
 108   14:50   39.5    62    4.7   329      8.8   698.4    0.00      35    999.0    -0.6
 108   15:00   37.7    72    5.9   330     11.3   698.7    0.00      25    999.0    -0.6
 108   15:10   35.2    86    2.8   328     11.0   698.7    0.00      36    999.0    -0.5
 108   15:20   34.5    90    2.6    18      5.3   698.6    0.00      79    999.0    -0.5
 108   15:30   34.0    94    3.6     9      6.0   698.5    0.00     237    999.0    -0.4
 108   15:40   35.8    88    3.8     1      8.3   698.3    0.00     410    999.0    -0.4
 108   15:50   37.4    80    5.3   350      8.1   698.2    0.00     428    999.0    -0.4
 108   16:00   38.5    78    3.2   348      6.4   698.1    0.00     342    999.0    -0.5
 108   16:10   39.8    71    3.4   350      6.3   698.1    0.00     329    999.0    -0.5
 108   16:20   40.0    68    3.6   357      7.2   698.2    0.00     202    999.0    -0.6
 108   16:30   39.9    72    5.0   327      8.9   698.1    0.00     183    999.0    -0.5
 108   16:40   40.4    65    2.9   356      5.1   698.1    0.00     151    999.0    -0.5
 108   16:50   40.8    64    3.9   329      5.8   698.1    0.00     141    999.0    -0.5
 108   17:00   41.0    62    2.9   338      4.8   698.3    0.00     139    999.0    -0.5
 108   17:10   40.7    68    4.0   335      6.5   698.2    0.00     109    999.0    -0.6
 108   17:20   40.2    69    3.1   343      6.0   698.2    0.00      60    999.0    -0.5
 108   17:30   40.3    64    1.9   353      3.9   698.3    0.00      50    999.0    -0.5
 108   17:40   40.5    59    1.5    26      3.4   698.5    0.00      42    999.0    -0.5
 108   17:50   40.6    59    1.2    15      3.6   698.3    0.00      33    999.0    -0.6
 108   18:00   40.6    55    3.6   136      8.4   698.5    0.00      22    999.0    -0.6
 108   18:10   39.8    55    2.9   130     10.4   698.4    0.00      15    999.0    -0.6
 108   18:20   39.4    57    0.6   106      2.0   698.4    0.00       4    999.0    -0.6
 108   18:30   39.2    58    2.5   147      6.0   698.6    0.00       1    999.0    -0.5
 108   18:40   39.1    58    2.0   133      6.9   698.5    0.00       0    999.0    -0.5
 108   18:50   38.9    62    2.1   236      8.0   698.7    0.00       0    999.0    -0.6
 108   19:00   38.2    65    5.4   248     12.3   698.5    0.00       0    999.0    -0.6
 108   19:10   37.0    73    5.3   248     10.2   698.8    0.00       0    999.0    -0.6
 108   19:20   36.2    76    4.6   242      9.2   699.0    0.00       0    999.0    -0.5
 108   19:30   36.3    76    3.1   190      7.1   699.0    0.00       0    999.0    -0.5
 108   19:40   36.2    77    1.6   205      4.1   699.0    0.00       0    999.0    -0.5
 108   19:50   36.2    77    1.1   180      3.5   699.1    0.00       0    999.0    -0.5
 108   20:00   36.5    76    1.9   179      5.3   699.0    0.00       0    999.0    -0.5
 108   20:10   36.9    75    2.3   238      6.4   699.2    0.00       0    999.0    -0.5
 108   20:20   37.1    75    4.7   265      7.4   699.3    0.00       0    999.0    -0.5
 108   20:30   36.8    75    5.6   254      8.4   699.3    0.00       0    999.0    -0.5
 108   20:40   36.2    77    3.6   256      7.6   699.5    0.00       0    999.0    -0.6
 108   20:50   35.1    79    0.7   193      2.3   699.3    0.00       0    999.0    -0.6
 108   21:00   34.5    79    0.9   162      2.6   699.5    0.00       0    999.0    -0.6
 108   21:10   34.1    80    1.0   138      2.5   699.4    0.00       0    999.0    -0.6
 108   21:20   34.0    79    1.3   138      3.1   699.3    0.00       0    999.0    -0.6
 108   21:30   33.9    78    1.3   199      3.8   699.3    0.00       0    999.0    -0.6
 108   21:40   33.0    81    1.6   186      3.7   699.4    0.00       0    999.0    -0.7

Return to Crooked Creek Research Lab graphs page.


Western Regional Climate Center,wrcc@dri.edu